KMMI/MMI METAR and TAF weather

Enter ICAO airport designator
Station Type Date Time Source
KMMI METAR 2024/04/17 17:55 UTC NOAA

KMMI 171755Z AUTO 29003KT 10SM SCT090 17/14 A3012 RMK A01 P0007


Station Type Date Time Source
KMMI Decoded METAR 2024/04/17 17:55 UTC NOAA

Station name not available
Apr 17, 2024 - 01:55 PM EDT / 2024.04.17 1755 UTC
Wind: from the WNW (290 degrees) at 3 MPH (3 KT):0
Visibility: 10 mile(s):0
Sky conditions: partly cloudy
Precipitation last hour: 0.07 inches
Temperature: 62 F (17 C)
Dew Point: 57 F (14 C)
Relative Humidity: 82%
Pressure (altimeter): 30.12 in. Hg (1019 hPa)
ob: KMMI 171755Z AUTO 29003KT 10SM SCT090 17/14 A3012 RMK A01 P0007
cycle: 18

Station Type Date Time Source
KMMI TAF UTC NOAA

Error!

Example: see airport list